Sage Danube — D5OP4 — position and weather

sailwx.info

Track history (hours):
 
Tides and Currents Weather Stations Pressure Air Temp Water Temp Dewpoint Dewpoint Depression Visibility Wind Speed Wind Dir Waves Ship Positions

Sage Danube

Last reported at 2018-Apr-24 20:33 UTC. Time now 2018-Apr-24 23:06 UTC.
Position N 37°14' W 009°41'.

Length 199 m; draft 9.3 m.

Type: Cargo ship. MMSI: 636018196.

Date/timePositionNaut miles runAvg speedWind from/ knotsBaromVisibWave heightAir tempDewpointWater temp
2018-Apr-24 20:33N 37°14' W 009°41'113.0
2018-Apr-24 20:27N 37°16' W 009°42'612.8
2018-Apr-24 19:59N 37°22' W 009°43'612.7
2018-Apr-24 19:31N 37°27' W 009°45'812.6
2018-Apr-24 18:54N 37°35' W 009°48'512.7
2018-Apr-24 18:30N 37°39' W 009°50'612.9
2018-Apr-24 18:01N 37°46' W 009°52'713.3
2018-Apr-24 17:30N 37°52' W 009°54'613.2
2018-Apr-24 17:00N 37°59' W 009°55'713.5
2018-Apr-24 16:29N 38°06' W 009°57'613.3
2018-Apr-24 16:01N 38°12' W 009°58'713.2
2018-Apr-24 15:30N 38°19' W 009°60'612.9
2018-Apr-24 15:00N 38°25' W 010°02'613.0
2018-Apr-24 14:30N 38°31' W 010°03'713.0
2018-Apr-24 14:00N 38°38' W 010°05'713.4
2018-Apr-24 13:31N 38°44' W 010°06'713.4
2018-Apr-24 13:01N 38°51' W 010°06'713.4
2018-Apr-24 12:30N 38°58' W 010°06'713.4
2018-Apr-24 12:00N 39°04' W 010°06'613.1
2018-Apr-24 11:31N 39°11' W 010°06'1213.5
2018-Apr-24 10:35N 39°23' W 010°07'113.2
2018-Apr-24 10:30N 39°24' W 010°07'813.4
2018-Apr-24 09:55N 39°32' W 010°07'1113.6
2018-Apr-24 09:05N 39°43' W 010°06'54712.9
2018-Apr-22 14:38N 48°24' W 006°12'3613.6
2018-Apr-22 11:58N 48°55' W 005°43'613.0
2018-Apr-22 11:28N 48°59' W 005°35'1412.6
2018-Apr-22 10:24N 49°05' W 005°17'512.2
2018-Apr-22 09:59N 49°08' W 005°11'611.8
2018-Apr-22 09:30N 49°11' W 005°03'611.6
2018-Apr-22 09:00N 49°14' W 004°55'611.6
2018-Apr-22 08:30N 49°17' W 004°48'611.9
2018-Apr-22 08:00N 49°20' W 004°40'712.1
2018-Apr-22 07:27N 49°24' W 004°32'512.2
2018-Apr-22 07:00N 49°26' W 004°24'612.6
2018-Apr-22 06:30N 49°29' W 004°15'813.3
2018-Apr-22 05:54N 49°33' W 004°05'913.7
2018-Apr-22 05:15N 49°38' W 003°53'314.0
2018-Apr-22 05:00N 49°39' W 003°48'714.3
2018-Apr-22 04:30N 49°43' W 003°39'714.3
2018-Apr-22 04:01N 49°47' W 003°30'714.0
2018-Apr-22 03:31N 49°51' W 003°21'713.7
2018-Apr-22 03:01N 49°54' W 003°11'713.2
2018-Apr-22 02:30N 49°57' W 003°02'612.8
2018-Apr-22 02:01N 49°60' W 002°53'612.1
2018-Apr-22 01:30N 50°02' W 002°44'611.7
2018-Apr-22 01:01N 50°04' W 002°36'611.1
2018-Apr-22 00:31N 50°05' W 002°27'1110.4
2018-Apr-21 23:25N 50°08' W 002°10'410.4
2018-Apr-21 23:00N 50°08' W 002°04'510.6
2018-Apr-21 22:30N 50°09' W 001°55'611.2
2018-Apr-21 22:01N 50°11' W 001°47'611.9
2018-Apr-21 21:31N 50°12' W 001°38'612.7
2018-Apr-21 21:01N 50°14' W 001°28'713.5
2018-Apr-21 20:30N 50°16' W 001°18'714.7
2018-Apr-21 20:00N 50°18' W 001°07'815.5
2018-Apr-21 19:30N 50°20' W 000°56'815.6
2018-Apr-21 19:00N 50°22' W 000°44'715.2
2018-Apr-21 18:30N 50°24' W 000°32'815.3
2018-Apr-21 18:00N 50°27' W 000°21'714.9
2018-Apr-21 17:30N 50°28' W 000°10'714.7
2018-Apr-21 17:00N 50°30' E 000°02'714.4
2018-Apr-21 16:30N 50°32' E 000°13'714.1
2018-Apr-21 16:00N 50°33' E 000°23'713.6
2018-Apr-21 15:30N 50°35' E 000°34'612.9
2018-Apr-21 15:00N 50°39' E 000°42'612.8
2018-Apr-21 14:30N 50°42' E 000°51'612.6
2018-Apr-21 14:00N 50°45' E 000°59'612.6
2018-Apr-21 13:30N 50°49' E 001°08'713.1
2018-Apr-21 12:56N 50°54' E 001°16'614.3
2018-Apr-21 12:30N 50°59' E 001°23'815.8
2018-Apr-21 12:00N 51°04' E 001°31'816.6
2018-Apr-21 11:30N 51°10' E 001°41'816.3
2018-Apr-21 11:00N 51°17' E 001°48'815.7
2018-Apr-21 10:30N 51°24' E 001°55'714.8
2018-Apr-21 10:00N 51°30' E 002°01'714.3
2018-Apr-21 09:30N 51°35' E 002°08'713.8
2018-Apr-21 09:01N 51°40' E 002°16'713.4
2018-Apr-21 08:31N 51°45' E 002°23'612.9
2018-Apr-21 08:01N 51°50' E 002°30'612.6
2018-Apr-21 07:31N 51°54' E 002°38'612.1
2018-Apr-21 07:01N 51°59' E 002°43'611.9
2018-Apr-21 06:30N 52°04' E 002°49'611.6
2018-Apr-21 06:01N 52°09' E 002°55'611.4
2018-Apr-21 05:30N 52°13' E 003°01'611.4
2018-Apr-21 05:01N 52°17' E 003°08'611.7
2018-Apr-21 04:30N 52°21' E 003°15'612.1
2018-Apr-21 04:00N 52°25' E 003°22'612.7
2018-Apr-21 03:31N 52°28' E 003°31'713.2
2018-Apr-21 03:00N 52°30' E 003°41'712.9
2018-Apr-21 02:29N 52°31' E 003°52'613.3
2018-Apr-21 02:01N 52°31' E 004°03'713.2
2018-Apr-21 01:31N 52°31' E 004°13'612.6
2018-Apr-21 01:00N 52°29' E 004°23'510.6
2018-Apr-21 00:31N 52°28' E 004°32'3 6.0
2018-Apr-21 00:00N 52°28' E 004°37'0 0.2
2018-Apr-20 23:31N 52°28' E 004°37'2 4.2
2018-Apr-20 23:00N 52°27' E 004°40'4 7.2
2018-Apr-20 22:30N 52°26' E 004°45'3 6.1
2018-Apr-20 22:00N 52°25' E 004°50'2 3.2
2018-Apr-20 21:30N 52°24' E 004°52'0 0.4
2018-Apr-20 21:00N 52°24' E 004°52'0 0.0
2018-Apr-20 20:30N 52°24' E 004°52'0 0.0
2018-Apr-20 20:00N 52°24' E 004°52'0 0.0
2018-Apr-20 19:30N 52°24' E 004°52'0 0.0
2018-Apr-20 19:00N 52°24' E 004°52'0 0.0
2018-Apr-20 18:30N 52°24' E 004°52'0 0.0
2018-Apr-20 18:00N 52°24' E 004°52'0 0.0
2018-Apr-20 17:30N 52°24' E 004°52'0 0.0
2018-Apr-20 17:00N 52°24' E 004°52'0 0.0
2018-Apr-20 16:30N 52°24' E 004°52'0 0.0
2018-Apr-20 16:00N 52°24' E 004°52'0 0.0
2018-Apr-20 15:30N 52°24' E 004°52'0 0.0
2018-Apr-20 15:00N 52°24' E 004°52'0 0.0
2018-Apr-20 14:30N 52°24' E 004°52'0 0.0
2018-Apr-20 14:00N 52°24' E 004°52'0 0.0
2018-Apr-20 13:30N 52°24' E 004°52'0 0.0
2018-Apr-20 13:00N 52°24' E 004°52'0 0.0
2018-Apr-20 12:30N 52°24' E 004°52'0 0.0
2018-Apr-20 12:00N 52°24' E 004°52'0 0.0
2018-Apr-20 11:30N 52°24' E 004°52'0 0.0
2018-Apr-20 11:00N 52°24' E 004°52'0 0.0
2018-Apr-20 10:30N 52°24' E 004°52'0 0.0
2018-Apr-20 09:30N 52°24' E 004°52'0 0.0
2018-Apr-20 09:00N 52°24' E 004°52'0 0.0
2018-Apr-20 08:30N 52°24' E 004°52'0 0.0
2018-Apr-20 08:00N 52°24' E 004°52'0 0.0
2018-Apr-20 07:30N 52°24' E 004°52'0 0.0
2018-Apr-20 07:00N 52°24' E 004°52'0 0.0
2018-Apr-20 06:30N 52°24' E 004°52'0 0.0
2018-Apr-20 06:00N 52°24' E 004°52'0 0.0
2018-Apr-20 05:30N 52°24' E 004°52'0 0.0
2018-Apr-20 05:00N 52°24' E 004°52'0 0.0
2018-Apr-20 04:30N 52°24' E 004°52'0 0.0
2018-Apr-20 04:00N 52°24' E 004°52'0 0.0
2018-Apr-20 03:30N 52°24' E 004°52'0 0.0
2018-Apr-20 03:00N 52°24' E 004°52'0 0.0
2018-Apr-20 02:30N 52°24' E 004°52'0 0.0
2018-Apr-20 02:00N 52°24' E 004°52'0 0.0
2018-Apr-20 01:30N 52°24' E 004°52'0 0.0
2018-Apr-20 01:00N 52°24' E 004°52'0 0.0
2018-Apr-20 00:30N 52°24' E 004°52'0 0.0
2018-Apr-20 00:00N 52°24' E 004°52'0 0.0
2018-Apr-19 23:30N 52°24' E 004°52'0 0.0
2018-Apr-19 23:00N 52°24' E 004°52'0 0.0
2018-Apr-19 22:30N 52°24' E 004°52'0 0.0
2018-Apr-19 22:00N 52°24' E 004°52'0 0.0
2018-Apr-19 21:30N 52°24' E 004°52'0 0.0
2018-Apr-19 21:00N 52°24' E 004°52'0 0.0
2018-Apr-19 20:30N 52°24' E 004°52'0 0.0
2018-Apr-19 20:00N 52°24' E 004°52'0 0.0
2018-Apr-19 19:30N 52°24' E 004°52'0 0.0
2018-Apr-19 19:00N 52°24' E 004°52'0 0.0
2018-Apr-19 18:30N 52°24' E 004°52'0 0.0
2018-Apr-19 18:00N 52°24' E 004°52'0 0.0
2018-Apr-19 17:30N 52°24' E 004°52'0 0.0
2018-Apr-19 17:00N 52°24' E 004°52'0 0.0
2018-Apr-19 16:30N 52°24' E 004°52'0 0.0
2018-Apr-19 16:00N 52°24' E 004°52'0 0.0
2018-Apr-19 15:30N 52°24' E 004°52'0 0.0
2018-Apr-19 15:00N 52°24' E 004°52'0 0.0
2018-Apr-19 14:30N 52°24' E 004°52'0 0.0
2018-Apr-19 14:00N 52°24' E 004°52'0 0.0
2018-Apr-19 13:30N 52°24' E 004°52'0 0.0
2018-Apr-19 13:00N 52°24' E 004°52'0 0.0
2018-Apr-19 12:30N 52°24' E 004°52'0 0.0
2018-Apr-19 12:00N 52°24' E 004°52'0 0.0
2018-Apr-19 11:30N 52°24' E 004°52'0 0.0
2018-Apr-19 11:00N 52°24' E 004°52'0 0.0
2018-Apr-19 10:30N 52°24' E 004°52'0 0.0
2018-Apr-19 10:00N 52°24' E 004°52'0 0.0
2018-Apr-19 09:30N 52°24' E 004°52'0 0.0
2018-Apr-19 09:00N 52°24' E 004°52'0 0.0
2018-Apr-19 08:30N 52°24' E 004°52'0 0.0
2018-Apr-19 07:57N 52°24' E 004°52'0 0.0
2018-Apr-19 07:30N 52°24' E 004°52'0 0.0
2018-Apr-19 07:00N 52°24' E 004°52'0 0.0
2018-Apr-19 06:30N 52°24' E 004°52'0 0.0
2018-Apr-19 06:00N 52°24' E 004°52'0 0.0
2018-Apr-19 05:30N 52°24' E 004°52'0 0.0
2018-Apr-19 05:00N 52°24' E 004°52'0 0.0
2018-Apr-19 04:30N 52°24' E 004°52'0 0.0
2018-Apr-19 04:00N 52°24' E 004°52'0 0.0
2018-Apr-19 03:30N 52°24' E 004°52'0 0.0
2018-Apr-19 03:00N 52°24' E 004°52'0 0.0
2018-Apr-19 02:30N 52°24' E 004°52'0 0.0
2018-Apr-19 02:00N 52°24' E 004°52'0 0.0
2018-Apr-19 01:30N 52°24' E 004°52'0 0.0
2018-Apr-19 01:00N 52°24' E 004°52'0 0.0
2018-Apr-19 00:30N 52°24' E 004°52'0 0.0
2018-Apr-19 00:00N 52°24' E 004°52'0 0.0
2018-Apr-18 23:30N 52°24' E 004°52'0 0.0
2018-Apr-18 23:00N 52°24' E 004°52'0 0.0
2018-Apr-18 22:30N 52°24' E 004°52'0 0.0
2018-Apr-18 22:00N 52°24' E 004°52'0 0.0
2018-Apr-18 21:30N 52°24' E 004°52'0 0.0
2018-Apr-18 21:00N 52°24' E 004°52'0 0.0
2018-Apr-18 20:30N 52°24' E 004°52'0 0.0
2018-Apr-18 20:00N 52°24' E 004°52'0 0.0
2018-Apr-18 19:30N 52°24' E 004°52'0 0.0
2018-Apr-18 19:00N 52°24' E 004°52'0 0.0
2018-Apr-18 18:30N 52°24' E 004°52'0 0.0
2018-Apr-18 18:00N 52°24' E 004°52'0 0.0
2018-Apr-18 17:30N 52°24' E 004°52'0 0.0
2018-Apr-18 17:00N 52°24' E 004°52'0 0.0
2018-Apr-18 16:30N 52°24' E 004°52'0 0.0
2018-Apr-18 16:00N 52°24' E 004°52'0 0.0
2018-Apr-18 15:30N 52°24' E 004°52'0 0.0
2018-Apr-18 15:00N 52°24' E 004°52'0 0.0
2018-Apr-18 14:30N 52°24' E 004°52'0 0.0
2018-Apr-18 14:00N 52°24' E 004°52'0 0.0
2018-Apr-18 13:30N 52°24' E 004°52'0 0.0
2018-Apr-18 13:00N 52°24' E 004°52'0 0.0
2018-Apr-18 12:30N 52°24' E 004°52'0 0.0
2018-Apr-18 12:00N 52°24' E 004°52'0 0.0
2018-Apr-18 11:30N 52°24' E 004°52'0 0.0
2018-Apr-18 11:00N 52°24' E 004°52'0 0.0
2018-Apr-18 10:30N 52°24' E 004°52'0 0.0
2018-Apr-18 10:00N 52°24' E 004°52'0 0.0
2018-Apr-18 09:30N 52°24' E 004°52'0 0.0
2018-Apr-18 09:00N 52°24' E 004°52'0 0.0
2018-Apr-18 08:30N 52°24' E 004°52'0 0.0
2018-Apr-18 08:00N 52°24' E 004°52'0 0.0
2018-Apr-18 07:30N 52°24' E 004°52'0 0.0
2018-Apr-18 07:00N 52°24' E 004°52'0 0.0
2018-Apr-18 06:30N 52°24' E 004°52'0 0.0
2018-Apr-18 06:00N 52°24' E 004°52'0 0.0
2018-Apr-18 05:30N 52°24' E 004°52'0 0.0
2018-Apr-18 05:00N 52°24' E 004°52'0 0.0
2018-Apr-18 04:30N 52°24' E 004°52'0 0.0
2018-Apr-18 04:00N 52°24' E 004°52'0 0.0
2018-Apr-18 03:30N 52°24' E 004°52'0 0.0
2018-Apr-18 03:00N 52°24' E 004°52'0 0.0
2018-Apr-18 02:30N 52°24' E 004°52'0 0.0
2018-Apr-18 02:00N 52°24' E 004°52'0 0.0
2018-Apr-18 01:30N 52°24' E 004°52'0 0.0
2018-Apr-18 01:00N 52°24' E 004°52'0 0.0
2018-Apr-18 00:30N 52°24' E 004°52'0 0.0
2018-Apr-18 00:00N 52°24' E 004°52'0 0.0
2018-Apr-17 23:30N 52°24' E 004°52'0 0.0
2018-Apr-17 23:00N 52°24' E 004°52'0 0.0
2018-Apr-17 22:30N 52°24' E 004°52'0 0.0
2018-Apr-17 22:00N 52°24' E 004°52'0 0.0
2018-Apr-17 21:30N 52°24' E 004°52'0 0.0
2018-Apr-17 21:00N 52°24' E 004°52'0 0.0
2018-Apr-17 20:30N 52°24' E 004°52'0 0.0
2018-Apr-17 20:00N 52°24' E 004°52'0 0.0
2018-Apr-17 19:30N 52°24' E 004°52'0 0.0
2018-Apr-17 19:00N 52°24' E 004°52'0 0.0
2018-Apr-17 18:30N 52°24' E 004°52'0 0.0
2018-Apr-17 18:00N 52°24' E 004°52'0 0.0
2018-Apr-17 17:30N 52°24' E 004°52'0 0.0
2018-Apr-17 17:00N 52°24' E 004°52'0 0.0
2018-Apr-17 16:30N 52°24' E 004°52'0 0.0
2018-Apr-17 16:00N 52°24' E 004°52'0 0.0
2018-Apr-17 15:30N 52°24' E 004°52'0 0.0
2018-Apr-17 15:00N 52°24' E 004°52'0 0.0
2018-Apr-17 14:30N 52°24' E 004°52'0 0.0
2018-Apr-17 14:00N 52°24' E 004°52'0 0.0
2018-Apr-17 13:30N 52°24' E 004°52'0 0.0
2018-Apr-17 13:00N 52°24' E 004°52'0 0.0
2018-Apr-17 12:30N 52°24' E 004°52'0 0.0
2018-Apr-17 12:00N 52°24' E 004°52'0 0.0
2018-Apr-17 11:30N 52°24' E 004°52'0 0.0
2018-Apr-17 11:00N 52°24' E 004°52'0 0.0
2018-Apr-17 10:30N 52°24' E 004°52'0 0.0
2018-Apr-17 10:00N 52°24' E 004°52'0 0.0
2018-Apr-17 09:30N 52°24' E 004°52'0 0.0
2018-Apr-17 09:00N 52°24' E 004°52'0 0.0
2018-Apr-17 08:30N 52°24' E 004°52'0 0.0
2018-Apr-17 08:00N 52°24' E 004°52'0 0.0
2018-Apr-17 07:30N 52°24' E 004°52'0 0.0
2018-Apr-17 07:00N 52°24' E 004°52'0 0.0
2018-Apr-17 06:30N 52°24' E 004°52'0 0.0
2018-Apr-17 06:00N 52°24' E 004°52'0 0.0
2018-Apr-17 05:30N 52°24' E 004°52'0 0.0
2018-Apr-17 05:00N 52°24' E 004°52'0 0.0
2018-Apr-17 04:30N 52°24' E 004°52'0 0.0
2018-Apr-17 04:00N 52°24' E 004°52'0 0.0
2018-Apr-17 03:30N 52°24' E 004°52'0 0.0
2018-Apr-17 03:00N 52°24' E 004°52'0 0.0
2018-Apr-17 02:30N 52°24' E 004°52'0 0.0
2018-Apr-17 02:00N 52°24' E 004°52'0 0.0
2018-Apr-17 01:30N 52°24' E 004°52'0 0.0
2018-Apr-17 01:00N 52°24' E 004°52'0 0.0
2018-Apr-17 00:30N 52°24' E 004°52'0 0.0
2018-Apr-17 00:00N 52°24' E 004°52'0 0.0
2018-Apr-16 23:30N 52°24' E 004°52'0 0.0
2018-Apr-16 23:00N 52°24' E 004°52'0 0.0
2018-Apr-16 22:30N 52°24' E 004°52'0 0.0
2018-Apr-16 22:00N 52°24' E 004°52'0 0.0
2018-Apr-16 21:30N 52°24' E 004°52'0 0.0
2018-Apr-16 21:00N 52°24' E 004°52'0 0.0
2018-Apr-16 20:30N 52°24' E 004°52'0 0.0
2018-Apr-16 20:00N 52°24' E 004°52'0 0.0
2018-Apr-16 19:30N 52°24' E 004°52'0 0.0
2018-Apr-16 18:57N 52°24' E 004°52'0 0.0
2018-Apr-16 18:30N 52°24' E 004°52'0 0.0
2018-Apr-16 18:00N 52°24' E 004°52'0 0.0
2018-Apr-16 17:30N 52°24' E 004°52'0 0.0
2018-Apr-16 17:00N 52°24' E 004°52'0 0.0
2018-Apr-16 16:30N 52°24' E 004°52'0 0.0
2018-Apr-16 16:00N 52°24' E 004°52'0 0.0
2018-Apr-16 15:30N 52°24' E 004°52'0 0.0
2018-Apr-16 15:00N 52°24' E 004°52'0 0.0
2018-Apr-16 14:30N 52°24' E 004°52'0 0.0
2018-Apr-16 14:00N 52°24' E 004°52'0 0.0
2018-Apr-16 13:30N 52°24' E 004°52'0 0.0
2018-Apr-16 13:00N 52°24' E 004°52'0 0.0
2018-Apr-16 12:27N 52°24' E 004°52'0 0.0
2018-Apr-16 12:00N 52°24' E 004°52'0 0.0
2018-Apr-16 11:30N 52°24' E 004°52'0 0.0
2018-Apr-16 11:00N 52°24' E 004°52'0 0.0
2018-Apr-16 10:30N 52°24' E 004°52'0 0.0
2018-Apr-16 10:00N 52°24' E 004°52'0 0.0
2018-Apr-16 09:30N 52°24' E 004°52'0 0.0
2018-Apr-16 09:00N 52°24' E 004°52'0 0.0
2018-Apr-16 08:30N 52°24' E 004°52'0 0.0
2018-Apr-16 08:00N 52°24' E 004°52'0 0.0
2018-Apr-16 07:30N 52°24' E 004°52'0 0.0
2018-Apr-16 07:00N 52°24' E 004°52'0 0.0
2018-Apr-16 06:30N 52°24' E 004°52'0 0.0
2018-Apr-16 06:00N 52°24' E 004°52'0 0.0
2018-Apr-16 05:30N 52°24' E 004°52'0 0.0
2018-Apr-16 05:00N 52°24' E 004°52'0 0.0
2018-Apr-16 04:30N 52°24' E 004°52'0 0.0
2018-Apr-16 04:00N 52°24' E 004°52'0 0.0
2018-Apr-16 03:30N 52°24' E 004°52'0 0.0
2018-Apr-16 03:00N 52°24' E 004°52'0 0.0
2018-Apr-16 02:30N 52°24' E 004°52'0 0.0
2018-Apr-16 02:00N 52°24' E 004°52'0 0.0
2018-Apr-16 01:30N 52°24' E 004°52'0 0.0
2018-Apr-16 01:00N 52°24' E 004°52'0 0.0
2018-Apr-16 00:30N 52°24' E 004°52'0 0.0
2018-Apr-16 00:00N 52°24' E 004°52'0 0.0
2018-Apr-15 23:30N 52°24' E 004°52'0 0.0
2018-Apr-15 23:00N 52°24' E 004°52'0 0.0
2018-Apr-15 22:30N 52°24' E 004°52'0 0.0
2018-Apr-15 22:00N 52°24' E 004°52'0 0.0
2018-Apr-15 21:30N 52°24' E 004°52'0 0.0
2018-Apr-15 21:00N 52°24' E 004°52'0 0.0
2018-Apr-15 20:30N 52°24' E 004°52'0 0.0
2018-Apr-15 20:00N 52°24' E 004°52'0 0.0
2018-Apr-15 19:30N 52°24' E 004°52'0 0.0
2018-Apr-15 19:00N 52°24' E 004°52'0 0.0
2018-Apr-15 18:30N 52°24' E 004°52'0 0.0
2018-Apr-15 18:00N 52°24' E 004°52'0 0.0
2018-Apr-15 17:30N 52°24' E 004°52'0 0.0
2018-Apr-15 17:00N 52°24' E 004°52'0 0.0
2018-Apr-15 16:30N 52°24' E 004°52'0 0.0
2018-Apr-15 16:00N 52°24' E 004°52'0 0.0
2018-Apr-15 15:30N 52°24' E 004°52'0 0.0
2018-Apr-15 15:00N 52°24' E 004°52'0 0.0
2018-Apr-15 14:30N 52°24' E 004°52'0 0.0
2018-Apr-15 14:00N 52°24' E 004°52'0 0.0
2018-Apr-15 13:30N 52°24' E 004°52'0 0.0
2018-Apr-15 13:00N 52°24' E 004°52'0 0.0
2018-Apr-15 12:30N 52°24' E 004°52'0 0.2
2018-Apr-15 12:00N 52°24' E 004°52'1 2.8
2018-Apr-15 11:30N 52°25' E 004°50'4 8.7
2018-Apr-15 11:01N 52°26' E 004°43'4 8.2
2018-Apr-15 10:31N 52°28' E 004°38'1 1.4
2018-Apr-15 10:01N 52°28' E 004°36'2 3.4
2018-Apr-15 09:31N 52°28' E 004°34'4 7.9
2018-Apr-15 09:00N 52°28' E 004°27'2 3.1
2018-Apr-15 08:30N 52°29' E 004°25'5 9.8
2018-Apr-15 08:00N 52°29' E 004°17'612.6
2018-Apr-15 07:30N 52°28' E 004°06'5 9.8
2018-Apr-15 07:00N 52°27' E 003°59'0 0.6
2018-Apr-15 06:28N 52°26' E 003°59'0 0.1
2018-Apr-15 05:58N 52°26' E 003°59'0 0.3
2018-Apr-15 05:28N 52°27' E 003°59'0 0.0
2018-Apr-15 04:58N 52°27' E 003°59'0 0.0
2018-Apr-15 04:28N 52°27' E 003°59'0 0.0
2018-Apr-15 03:58N 52°27' E 003°59'0 0.0
2018-Apr-15 03:28N 52°27' E 003°59'0 0.0
2018-Apr-15 02:58N 52°27' E 003°59'0 0.0
2018-Apr-15 02:28N 52°27' E 003°59'0 0.0
2018-Apr-15 01:46N 52°27' E 003°59'0 0.0
2018-Apr-15 01:25N 52°27' E 003°59'0 0.0
2018-Apr-15 00:55N 52°27' E 003°59'0 0.3
2018-Apr-15 00:28N 52°26' E 003°59'0 0.2
2018-Apr-14 23:58N 52°26' E 003°59'0 0.0
2018-Apr-14 23:28N 52°26' E 003°59'0 0.0
2018-Apr-14 22:58N 52°26' E 003°59'0 0.0
2018-Apr-14 22:28N 52°26' E 003°59'0 0.0
2018-Apr-14 21:58N 52°26' E 003°59'0 0.0
2018-Apr-14 21:28N 52°26' E 003°59'0 0.0
2018-Apr-14 20:58N 52°26' E 003°59'  
Track history (hours):
 
Tides and Currents Weather Stations Pressure Air Temp Water Temp Dewpoint Dewpoint Depression Visibility Wind Speed Wind Dir Waves Ship Positions

Sage Danube

Last reported at 2018-Apr-24 20:33 UTC. Time now 2018-Apr-24 23:06 UTC.
Position N 37°14' W 009°41'.

Length 199 m; draft 9.3 m.

Type: Cargo ship. MMSI: 636018196.

Date/timePositionNaut miles runAvg speedWind from/ knotsBaromVisibWave heightAir tempDewpointWater temp
2018-Apr-24 20:33N 37°14' W 009°41'113.0
2018-Apr-24 20:27N 37°16' W 009°42'612.8
2018-Apr-24 19:59N 37°22' W 009°43'612.7
2018-Apr-24 19:31N 37°27' W 009°45'812.6
2018-Apr-24 18:54N 37°35' W 009°48'512.7
2018-Apr-24 18:30N 37°39' W 009°50'612.9
2018-Apr-24 18:01N 37°46' W 009°52'713.3
2018-Apr-24 17:30N 37°52' W 009°54'613.2
2018-Apr-24 17:00N 37°59' W 009°55'713.5
2018-Apr-24 16:29N 38°06' W 009°57'613.3
2018-Apr-24 16:01N 38°12' W 009°58'713.2
2018-Apr-24 15:30N 38°19' W 009°60'612.9
2018-Apr-24 15:00N 38°25' W 010°02'613.0
2018-Apr-24 14:30N 38°31' W 010°03'713.0
2018-Apr-24 14:00N 38°38' W 010°05'713.4
2018-Apr-24 13:31N 38°44' W 010°06'713.4
2018-Apr-24 13:01N 38°51' W 010°06'713.4
2018-Apr-24 12:30N 38°58' W 010°06'713.4
2018-Apr-24 12:00N 39°04' W 010°06'613.1
2018-Apr-24 11:31N 39°11' W 010°06'1213.5
2018-Apr-24 10:35N 39°23' W 010°07'113.2
2018-Apr-24 10:30N 39°24' W 010°07'813.4
2018-Apr-24 09:55N 39°32' W 010°07'1113.6
2018-Apr-24 09:05N 39°43' W 010°06'54712.9
2018-Apr-22 14:38N 48°24' W 006°12'3613.6
2018-Apr-22 11:58N 48°55' W 005°43'613.0
2018-Apr-22 11:28N 48°59' W 005°35'1412.6
2018-Apr-22 10:24N 49°05' W 005°17'512.2
2018-Apr-22 09:59N 49°08' W 005°11'611.8
2018-Apr-22 09:30N 49°11' W 005°03'611.6
2018-Apr-22 09:00N 49°14' W 004°55'611.6
2018-Apr-22 08:30N 49°17' W 004°48'611.9
2018-Apr-22 08:00N 49°20' W 004°40'712.1
2018-Apr-22 07:27N 49°24' W 004°32'512.2
2018-Apr-22 07:00N 49°26' W 004°24'612.6
2018-Apr-22 06:30N 49°29' W 004°15'813.3
2018-Apr-22 05:54N 49°33' W 004°05'913.7
2018-Apr-22 05:15N 49°38' W 003°53'314.0
2018-Apr-22 05:00N 49°39' W 003°48'714.3
2018-Apr-22 04:30N 49°43' W 003°39'714.3
2018-Apr-22 04:01N 49°47' W 003°30'714.0
2018-Apr-22 03:31N 49°51' W 003°21'713.7
2018-Apr-22 03:01N 49°54' W 003°11'713.2
2018-Apr-22 02:30N 49°57' W 003°02'612.8
2018-Apr-22 02:01N 49°60' W 002°53'612.1
2018-Apr-22 01:30N 50°02' W 002°44'611.7
2018-Apr-22 01:01N 50°04' W 002°36'611.1
2018-Apr-22 00:31N 50°05' W 002°27'1110.4
2018-Apr-21 23:25N 50°08' W 002°10'410.4
2018-Apr-21 23:00N 50°08' W 002°04'510.6
2018-Apr-21 22:30N 50°09' W 001°55'611.2
2018-Apr-21 22:01N 50°11' W 001°47'611.9
2018-Apr-21 21:31N 50°12' W 001°38'612.7
2018-Apr-21 21:01N 50°14' W 001°28'713.5
2018-Apr-21 20:30N 50°16' W 001°18'714.7
2018-Apr-21 20:00N 50°18' W 001°07'815.5
2018-Apr-21 19:30N 50°20' W 000°56'815.6
2018-Apr-21 19:00N 50°22' W 000°44'715.2
2018-Apr-21 18:30N 50°24' W 000°32'815.3
2018-Apr-21 18:00N 50°27' W 000°21'714.9
2018-Apr-21 17:30N 50°28' W 000°10'714.7
2018-Apr-21 17:00N 50°30' E 000°02'714.4
2018-Apr-21 16:30N 50°32' E 000°13'714.1
2018-Apr-21 16:00N 50°33' E 000°23'713.6
2018-Apr-21 15:30N 50°35' E 000°34'612.9
2018-Apr-21 15:00N 50°39' E 000°42'612.8
2018-Apr-21 14:30N 50°42' E 000°51'612.6
2018-Apr-21 14:00N 50°45' E 000°59'612.6
2018-Apr-21 13:30N 50°49' E 001°08'713.1
2018-Apr-21 12:56N 50°54' E 001°16'614.3
2018-Apr-21 12:30N 50°59' E 001°23'815.8
2018-Apr-21 12:00N 51°04' E 001°31'816.6
2018-Apr-21 11:30N 51°10' E 001°41'816.3
2018-Apr-21 11:00N 51°17' E 001°48'815.7
2018-Apr-21 10:30N 51°24' E 001°55'714.8
2018-Apr-21 10:00N 51°30' E 002°01'714.3
2018-Apr-21 09:30N 51°35' E 002°08'713.8
2018-Apr-21 09:01N 51°40' E 002°16'713.4
2018-Apr-21 08:31N 51°45' E 002°23'612.9
2018-Apr-21 08:01N 51°50' E 002°30'612.6
2018-Apr-21 07:31N 51°54' E 002°38'612.1
2018-Apr-21 07:01N 51°59' E 002°43'611.9
2018-Apr-21 06:30N 52°04' E 002°49'611.6
2018-Apr-21 06:01N 52°09' E 002°55'611.4
2018-Apr-21 05:30N 52°13' E 003°01'611.4
2018-Apr-21 05:01N 52°17' E 003°08'611.7
2018-Apr-21 04:30N 52°21' E 003°15'612.1
2018-Apr-21 04:00N 52°25' E 003°22'612.7
2018-Apr-21 03:31N 52°28' E 003°31'713.2
2018-Apr-21 03:00N 52°30' E 003°41'712.9
2018-Apr-21 02:29N 52°31' E 003°52'613.3
2018-Apr-21 02:01N 52°31' E 004°03'713.2
2018-Apr-21 01:31N 52°31' E 004°13'612.6
2018-Apr-21 01:00N 52°29' E 004°23'510.6
2018-Apr-21 00:31N 52°28' E 004°32'3 6.0
2018-Apr-21 00:00N 52°28' E 004°37'0 0.2
2018-Apr-20 23:31N 52°28' E 004°37'2 4.2
2018-Apr-20 23:00N 52°27' E 004°40'4 7.2
2018-Apr-20 22:30N 52°26' E 004°45'3 6.1
2018-Apr-20 22:00N 52°25' E 004°50'2 3.2
2018-Apr-20 21:30N 52°24' E 004°52'0 0.4
2018-Apr-20 21:00N 52°24' E 004°52'0 0.0
2018-Apr-20 20:30N 52°24' E 004°52'0 0.0
2018-Apr-20 20:00N 52°24' E 004°52'0 0.0
2018-Apr-20 19:30N 52°24' E 004°52'0 0.0
2018-Apr-20 19:00N 52°24' E 004°52'0 0.0
2018-Apr-20 18:30N 52°24' E 004°52'0 0.0
2018-Apr-20 18:00N 52°24' E 004°52'0 0.0
2018-Apr-20 17:30N 52°24' E 004°52'0 0.0
2018-Apr-20 17:00N 52°24' E 004°52'0 0.0
2018-Apr-20 16:30N 52°24' E 004°52'0 0.0
2018-Apr-20 16:00N 52°24' E 004°52'0 0.0
2018-Apr-20 15:30N 52°24' E 004°52'0 0.0
2018-Apr-20 15:00N 52°24' E 004°52'0 0.0
2018-Apr-20 14:30N 52°24' E 004°52'0 0.0
2018-Apr-20 14:00N 52°24' E 004°52'0 0.0
2018-Apr-20 13:30N 52°24' E 004°52'0 0.0
2018-Apr-20 13:00N 52°24' E 004°52'0 0.0
2018-Apr-20 12:30N 52°24' E 004°52'0 0.0
2018-Apr-20 12:00N 52°24' E 004°52'0 0.0
2018-Apr-20 11:30N 52°24' E 004°52'0 0.0
2018-Apr-20 11:00N 52°24' E 004°52'0 0.0
2018-Apr-20 10:30N 52°24' E 004°52'0 0.0
2018-Apr-20 09:30N 52°24' E 004°52'0 0.0
2018-Apr-20 09:00N 52°24' E 004°52'0 0.0
2018-Apr-20 08:30N 52°24' E 004°52'0 0.0
2018-Apr-20 08:00N 52°24' E 004°52'0 0.0
2018-Apr-20 07:30N 52°24' E 004°52'0 0.0
2018-Apr-20 07:00N 52°24' E 004°52'0 0.0
2018-Apr-20 06:30N 52°24' E 004°52'0 0.0
2018-Apr-20 06:00N 52°24' E 004°52'0 0.0
2018-Apr-20 05:30N 52°24' E 004°52'0 0.0
2018-Apr-20 05:00N 52°24' E 004°52'0 0.0
2018-Apr-20 04:30N 52°24' E 004°52'0 0.0
2018-Apr-20 04:00N 52°24' E 004°52'0 0.0
2018-Apr-20 03:30N 52°24' E 004°52'0 0.0
2018-Apr-20 03:00N 52°24' E 004°52'0 0.0
2018-Apr-20 02:30N 52°24' E 004°52'0 0.0
2018-Apr-20 02:00N 52°24' E 004°52'0 0.0
2018-Apr-20 01:30N 52°24' E 004°52'0 0.0
2018-Apr-20 01:00N 52°24' E 004°52'0 0.0
2018-Apr-20 00:30N 52°24' E 004°52'0 0.0
2018-Apr-20 00:00N 52°24' E 004°52'0 0.0
2018-Apr-19 23:30N 52°24' E 004°52'0 0.0
2018-Apr-19 23:00N 52°24' E 004°52'0 0.0
2018-Apr-19 22:30N 52°24' E 004°52'0 0.0
2018-Apr-19 22:00N 52°24' E 004°52'0 0.0
2018-Apr-19 21:30N 52°24' E 004°52'0 0.0
2018-Apr-19 21:00N 52°24' E 004°52'0 0.0
2018-Apr-19 20:30N 52°24' E 004°52'0 0.0
2018-Apr-19 20:00N 52°24' E 004°52'0 0.0
2018-Apr-19 19:30N 52°24' E 004°52'0 0.0
2018-Apr-19 19:00N 52°24' E 004°52'0 0.0
2018-Apr-19 18:30N 52°24' E 004°52'0 0.0
2018-Apr-19 18:00N 52°24' E 004°52'0 0.0
2018-Apr-19 17:30N 52°24' E 004°52'0 0.0
2018-Apr-19 17:00N 52°24' E 004°52'0 0.0
2018-Apr-19 16:30N 52°24' E 004°52'0 0.0
2018-Apr-19 16:00N 52°24' E 004°52'0 0.0
2018-Apr-19 15:30N 52°24' E 004°52'0 0.0
2018-Apr-19 15:00N 52°24' E 004°52'0 0.0
2018-Apr-19 14:30N 52°24' E 004°52'0 0.0
2018-Apr-19 14:00N 52°24' E 004°52'0 0.0
2018-Apr-19 13:30N 52°24' E 004°52'0 0.0
2018-Apr-19 13:00N 52°24' E 004°52'0 0.0
2018-Apr-19 12:30N 52°24' E 004°52'0 0.0
2018-Apr-19 12:00N 52°24' E 004°52'0 0.0
2018-Apr-19 11:30N 52°24' E 004°52'0 0.0
2018-Apr-19 11:00N 52°24' E 004°52'0 0.0
2018-Apr-19 10:30N 52°24' E 004°52'0 0.0
2018-Apr-19 10:00N 52°24' E 004°52'0 0.0
2018-Apr-19 09:30N 52°24' E 004°52'0 0.0
2018-Apr-19 09:00N 52°24' E 004°52'0 0.0
2018-Apr-19 08:30N 52°24' E 004°52'0 0.0
2018-Apr-19 07:57N 52°24' E 004°52'0 0.0
2018-Apr-19 07:30N 52°24' E 004°52'0 0.0
2018-Apr-19 07:00N 52°24' E 004°52'0 0.0
2018-Apr-19 06:30N 52°24' E 004°52'0 0.0
2018-Apr-19 06:00N 52°24' E 004°52'0 0.0
2018-Apr-19 05:30N 52°24' E 004°52'0 0.0
2018-Apr-19 05:00N 52°24' E 004°52'0 0.0
2018-Apr-19 04:30N 52°24' E 004°52'0 0.0
2018-Apr-19 04:00N 52°24' E 004°52'0 0.0
2018-Apr-19 03:30N 52°24' E 004°52'0 0.0
2018-Apr-19 03:00N 52°24' E 004°52'0 0.0
2018-Apr-19 02:30N 52°24' E 004°52'0 0.0
2018-Apr-19 02:00N 52°24' E 004°52'0 0.0
2018-Apr-19 01:30N 52°24' E 004°52'0 0.0
2018-Apr-19 01:00N 52°24' E 004°52'0 0.0
2018-Apr-19 00:30N 52°24' E 004°52'0 0.0
2018-Apr-19 00:00N 52°24' E 004°52'0 0.0
2018-Apr-18 23:30N 52°24' E 004°52'0 0.0
2018-Apr-18 23:00N 52°24' E 004°52'0 0.0
2018-Apr-18 22:30N 52°24' E 004°52'0 0.0
2018-Apr-18 22:00N 52°24' E 004°52'0 0.0
2018-Apr-18 21:30N 52°24' E 004°52'0 0.0
2018-Apr-18 21:00N 52°24' E 004°52'0 0.0
2018-Apr-18 20:30N 52°24' E 004°52'0 0.0
2018-Apr-18 20:00N 52°24' E 004°52'0 0.0
2018-Apr-18 19:30N 52°24' E 004°52'0 0.0
2018-Apr-18 19:00N 52°24' E 004°52'0 0.0
2018-Apr-18 18:30N 52°24' E 004°52'0 0.0
2018-Apr-18 18:00N 52°24' E 004°52'0 0.0
2018-Apr-18 17:30N 52°24' E 004°52'0 0.0
2018-Apr-18 17:00N 52°24' E 004°52'0 0.0
2018-Apr-18 16:30N 52°24' E 004°52'0 0.0
2018-Apr-18 16:00N 52°24' E 004°52'0 0.0
2018-Apr-18 15:30N 52°24' E 004°52'0 0.0
2018-Apr-18 15:00N 52°24' E 004°52'0 0.0
2018-Apr-18 14:30N 52°24' E 004°52'0 0.0
2018-Apr-18 14:00N 52°24' E 004°52'0 0.0
2018-Apr-18 13:30N 52°24' E 004°52'0 0.0
2018-Apr-18 13:00N 52°24' E 004°52'0 0.0
2018-Apr-18 12:30N 52°24' E 004°52'0 0.0
2018-Apr-18 12:00N 52°24' E 004°52'0 0.0
2018-Apr-18 11:30N 52°24' E 004°52'0 0.0
2018-Apr-18 11:00N 52°24' E 004°52'0 0.0
2018-Apr-18 10:30N 52°24' E 004°52'0 0.0
2018-Apr-18 10:00N 52°24' E 004°52'0 0.0
2018-Apr-18 09:30N 52°24' E 004°52'0 0.0
2018-Apr-18 09:00N 52°24' E 004°52'0 0.0
2018-Apr-18 08:30N 52°24' E 004°52'0 0.0
2018-Apr-18 08:00N 52°24' E 004°52'0 0.0
2018-Apr-18 07:30N 52°24' E 004°52'0 0.0
2018-Apr-18 07:00N 52°24' E 004°52'0 0.0
2018-Apr-18 06:30N 52°24' E 004°52'0 0.0
2018-Apr-18 06:00N 52°24' E 004°52'0 0.0
2018-Apr-18 05:30N 52°24' E 004°52'0 0.0
2018-Apr-18 05:00N 52°24' E 004°52'0 0.0
2018-Apr-18 04:30N 52°24' E 004°52'0 0.0
2018-Apr-18 04:00N 52°24' E 004°52'0 0.0
2018-Apr-18 03:30N 52°24' E 004°52'0 0.0
2018-Apr-18 03:00N 52°24' E 004°52'0 0.0
2018-Apr-18 02:30N 52°24' E 004°52'0 0.0
2018-Apr-18 02:00N 52°24' E 004°52'0 0.0
2018-Apr-18 01:30N 52°24' E 004°52'0 0.0
2018-Apr-18 01:00N 52°24' E 004°52'0 0.0
2018-Apr-18 00:30N 52°24' E 004°52'0 0.0
2018-Apr-18 00:00N 52°24' E 004°52'0 0.0
2018-Apr-17 23:30N 52°24' E 004°52'0 0.0
2018-Apr-17 23:00N 52°24' E 004°52'0 0.0
2018-Apr-17 22:30N 52°24' E 004°52'0 0.0
2018-Apr-17 22:00N 52°24' E 004°52'0 0.0
2018-Apr-17 21:30N 52°24' E 004°52'0 0.0
2018-Apr-17 21:00N 52°24' E 004°52'0 0.0
2018-Apr-17 20:30N 52°24' E 004°52'0 0.0
2018-Apr-17 20:00N 52°24' E 004°52'0 0.0
2018-Apr-17 19:30N 52°24' E 004°52'0 0.0
2018-Apr-17 19:00N 52°24' E 004°52'0 0.0
2018-Apr-17 18:30N 52°24' E 004°52'0 0.0
2018-Apr-17 18:00N 52°24' E 004°52'0 0.0
2018-Apr-17 17:30N 52°24' E 004°52'0 0.0
2018-Apr-17 17:00N 52°24' E 004°52'0 0.0
2018-Apr-17 16:30N 52°24' E 004°52'0 0.0
2018-Apr-17 16:00N 52°24' E 004°52'0 0.0
2018-Apr-17 15:30N 52°24' E 004°52'0 0.0
2018-Apr-17 15:00N 52°24' E 004°52'0 0.0
2018-Apr-17 14:30N 52°24' E 004°52'0 0.0
2018-Apr-17 14:00N 52°24' E 004°52'0 0.0
2018-Apr-17 13:30N 52°24' E 004°52'0 0.0
2018-Apr-17 13:00N 52°24' E 004°52'0 0.0
2018-Apr-17 12:30N 52°24' E 004°52'0 0.0
2018-Apr-17 12:00N 52°24' E 004°52'0 0.0
2018-Apr-17 11:30N 52°24' E 004°52'0 0.0
2018-Apr-17 11:00N 52°24' E 004°52'0 0.0
2018-Apr-17 10:30N 52°24' E 004°52'0 0.0
2018-Apr-17 10:00N 52°24' E 004°52'0 0.0
2018-Apr-17 09:30N 52°24' E 004°52'0 0.0
2018-Apr-17 09:00N 52°24' E 004°52'0 0.0
2018-Apr-17 08:30N 52°24' E 004°52'0 0.0
2018-Apr-17 08:00N 52°24' E 004°52'0 0.0
2018-Apr-17 07:30N 52°24' E 004°52'0 0.0
2018-Apr-17 07:00N 52°24' E 004°52'0 0.0
2018-Apr-17 06:30N 52°24' E 004°52'0 0.0
2018-Apr-17 06:00N 52°24' E 004°52'0 0.0
2018-Apr-17 05:30N 52°24' E 004°52'0 0.0
2018-Apr-17 05:00N 52°24' E 004°52'0 0.0
2018-Apr-17 04:30N 52°24' E 004°52'0 0.0
2018-Apr-17 04:00N 52°24' E 004°52'0 0.0
2018-Apr-17 03:30N 52°24' E 004°52'0 0.0
2018-Apr-17 03:00N 52°24' E 004°52'0 0.0
2018-Apr-17 02:30N 52°24' E 004°52'0 0.0
2018-Apr-17 02:00N 52°24' E 004°52'0 0.0
2018-Apr-17 01:30N 52°24' E 004°52'0 0.0
2018-Apr-17 01:00N 52°24' E 004°52'0 0.0
2018-Apr-17 00:30N 52°24' E 004°52'0 0.0
2018-Apr-17 00:00N 52°24' E 004°52'0 0.0
2018-Apr-16 23:30N 52°24' E 004°52'0 0.0
2018-Apr-16 23:00N 52°24' E 004°52'0 0.0
2018-Apr-16 22:30N 52°24' E 004°52'0 0.0
2018-Apr-16 22:00N 52°24' E 004°52'0 0.0
2018-Apr-16 21:30N 52°24' E 004°52'0 0.0
2018-Apr-16 21:00N 52°24' E 004°52'0 0.0
2018-Apr-16 20:30N 52°24' E 004°52'0 0.0
2018-Apr-16 20:00N 52°24' E 004°52'0 0.0
2018-Apr-16 19:30N 52°24' E 004°52'0 0.0
2018-Apr-16 18:57N 52°24' E 004°52'0 0.0
2018-Apr-16 18:30N 52°24' E 004°52'0 0.0
2018-Apr-16 18:00N 52°24' E 004°52'0 0.0
2018-Apr-16 17:30N 52°24' E 004°52'0 0.0
2018-Apr-16 17:00N 52°24' E 004°52'0 0.0
2018-Apr-16 16:30N 52°24' E 004°52'0 0.0
2018-Apr-16 16:00N 52°24' E 004°52'0 0.0
2018-Apr-16 15:30N 52°24' E 004°52'0 0.0
2018-Apr-16 15:00N 52°24' E 004°52'0 0.0
2018-Apr-16 14:30N 52°24' E 004°52'0 0.0
2018-Apr-16 14:00N 52°24' E 004°52'0 0.0
2018-Apr-16 13:30N 52°24' E 004°52'0 0.0
2018-Apr-16 13:00N 52°24' E 004°52'0 0.0
2018-Apr-16 12:27N 52°24' E 004°52'0 0.0
2018-Apr-16 12:00N 52°24' E 004°52'0 0.0
2018-Apr-16 11:30N 52°24' E 004°52'0 0.0
2018-Apr-16 11:00N 52°24' E 004°52'0 0.0
2018-Apr-16 10:30N 52°24' E 004°52'0 0.0
2018-Apr-16 10:00N 52°24' E 004°52'0 0.0
2018-Apr-16 09:30N 52°24' E 004°52'0 0.0
2018-Apr-16 09:00N 52°24' E 004°52'0 0.0
2018-Apr-16 08:30N 52°24' E 004°52'0 0.0
2018-Apr-16 08:00N 52°24' E 004°52'0 0.0
2018-Apr-16 07:30N 52°24' E 004°52'0 0.0
2018-Apr-16 07:00N 52°24' E 004°52'0 0.0
2018-Apr-16 06:30N 52°24' E 004°52'0 0.0
2018-Apr-16 06:00N 52°24' E 004°52'0 0.0
2018-Apr-16 05:30N 52°24' E 004°52'0 0.0
2018-Apr-16 05:00N 52°24' E 004°52'0 0.0
2018-Apr-16 04:30N 52°24' E 004°52'0 0.0
2018-Apr-16 04:00N 52°24' E 004°52'0 0.0
2018-Apr-16 03:30N 52°24' E 004°52'0 0.0
2018-Apr-16 03:00N 52°24' E 004°52'0 0.0
2018-Apr-16 02:30N 52°24' E 004°52'0 0.0
2018-Apr-16 02:00N 52°24' E 004°52'0 0.0
2018-Apr-16 01:30N 52°24' E 004°52'0 0.0
2018-Apr-16 01:00N 52°24' E 004°52'0 0.0
2018-Apr-16 00:30N 52°24' E 004°52'0 0.0
2018-Apr-16 00:00N 52°24' E 004°52'0 0.0
2018-Apr-15 23:30N 52°24' E 004°52'0 0.0
2018-Apr-15 23:00N 52°24' E 004°52'0 0.0
2018-Apr-15 22:30N 52°24' E 004°52'0 0.0
2018-Apr-15 22:00N 52°24' E 004°52'0 0.0
2018-Apr-15 21:30N 52°24' E 004°52'0 0.0
2018-Apr-15 21:00N 52°24' E 004°52'0 0.0
2018-Apr-15 20:30N 52°24' E 004°52'0 0.0
2018-Apr-15 20:00N 52°24' E 004°52'0 0.0
2018-Apr-15 19:30N 52°24' E 004°52'0 0.0
2018-Apr-15 19:00N 52°24' E 004°52'0 0.0
2018-Apr-15 18:30N 52°24' E 004°52'0 0.0
2018-Apr-15 18:00N 52°24' E 004°52'0 0.0
2018-Apr-15 17:30N 52°24' E 004°52'0 0.0
2018-Apr-15 17:00N 52°24' E 004°52'0 0.0
2018-Apr-15 16:30N 52°24' E 004°52'0 0.0
2018-Apr-15 16:00N 52°24' E 004°52'0 0.0
2018-Apr-15 15:30N 52°24' E 004°52'0 0.0
2018-Apr-15 15:00N 52°24' E 004°52'0 0.0
2018-Apr-15 14:30N 52°24' E 004°52'0 0.0
2018-Apr-15 14:00N 52°24' E 004°52'0 0.0
2018-Apr-15 13:30N 52°24' E 004°52'0 0.0
2018-Apr-15 13:00N 52°24' E 004°52'0 0.0
2018-Apr-15 12:30N 52°24' E 004°52'0 0.2
2018-Apr-15 12:00N 52°24' E 004°52'1 2.8
2018-Apr-15 11:30N 52°25' E 004°50'4 8.7
2018-Apr-15 11:01N 52°26' E 004°43'4 8.2
2018-Apr-15 10:31N 52°28' E 004°38'1 1.4
2018-Apr-15 10:01N 52°28' E 004°36'2 3.4
2018-Apr-15 09:31N 52°28' E 004°34'4 7.9
2018-Apr-15 09:00N 52°28' E 004°27'2 3.1
2018-Apr-15 08:30N 52°29' E 004°25'5 9.8
2018-Apr-15 08:00N 52°29' E 004°17'612.6
2018-Apr-15 07:30N 52°28' E 004°06'5 9.8
2018-Apr-15 07:00N 52°27' E 003°59'0 0.6
2018-Apr-15 06:28N 52°26' E 003°59'0 0.1
2018-Apr-15 05:58N 52°26' E 003°59'0 0.3
2018-Apr-15 05:28N 52°27' E 003°59'0 0.0
2018-Apr-15 04:58N 52°27' E 003°59'0 0.0
2018-Apr-15 04:28N 52°27' E 003°59'0 0.0
2018-Apr-15 03:58N 52°27' E 003°59'0 0.0
2018-Apr-15 03:28N 52°27' E 003°59'0 0.0
2018-Apr-15 02:58N 52°27' E 003°59'0 0.0
2018-Apr-15 02:28N 52°27' E 003°59'0 0.0
2018-Apr-15 01:46N 52°27' E 003°59'0 0.0
2018-Apr-15 01:25N 52°27' E 003°59'0 0.0
2018-Apr-15 00:55N 52°27' E 003°59'0 0.3
2018-Apr-15 00:28N 52°26' E 003°59'0 0.2
2018-Apr-14 23:58N 52°26' E 003°59'0 0.0
2018-Apr-14 23:28N 52°26' E 003°59'0 0.0
2018-Apr-14 22:58N 52°26' E 003°59'0 0.0
2018-Apr-14 22:28N 52°26' E 003°59'0 0.0
2018-Apr-14 21:58N 52°26' E 003°59'0 0.0
2018-Apr-14 21:28N 52°26' E 003°59'0 0.0
2018-Apr-14 20:58N 52°26' E 003°59'  

Dump ship's entire track history